Time;durP1;ratioP1;P1;durP2;ratioP2;P2;SDS_P1;SDS_P2;PMS_P1;PMS_P2;Temp;Humidity;BMP_temperature;BMP_pressure;BME280_temperature;BME280_humidity;BME280_pressure;Samples;Min_cycle;Max_cycle;Signal;HPM_P1;HPM_P2
2022/06/08 00:01:27;;;;;;;20.60;16.38;;;;;;;16.66;100.00;100971.66;5026384;28;20050;-49
2022/06/08 00:04:16;;;;;;;22.95;17.15;;;;;;;16.66;100.00;100971.66;5028589;28;20042;-49
2022/06/08 00:07:04;;;;;;;22.73;17.73;;;;;;;16.63;100.00;100967.59;5027158;28;20092;-47
2022/06/08 00:09:52;;;;;;;24.00;18.15;;;;;;;16.58;100.00;100973.19;5031949;28;20050;-47
2022/06/08 00:12:40;;;;;;;22.25;18.05;;;;;;;16.55;100.00;100965.56;5019588;28;20057;-47
2022/06/08 00:15:27;;;;;;;19.45;16.65;;;;;;;16.53;100.00;100967.78;5023297;28;20045;-48
2022/06/08 00:18:15;;;;;;;21.88;16.92;;;;;;;16.54;100.00;100972.97;5010473;28;20048;-48
2022/06/08 00:21:03;;;;;;;23.80;18.55;;;;;;;16.54;100.00;100961.97;5031975;28;20500;-50
2022/06/08 00:23:51;;;;;;;21.13;16.88;;;;;;;16.52;100.00;100961.44;5016679;28;20046;-48
2022/06/08 00:26:38;;;;;;;21.75;17.08;;;;;;;16.49;100.00;100953.00;5028779;28;20042;-47
2022/06/08 00:29:22;;;;;;;20.63;17.08;;;;;;;16.46;100.00;100959.94;5026937;28;20049;-47
2022/06/08 00:32:12;;;;;;;21.38;16.75;;;;;;;16.47;100.00;100949.75;5031882;28;20049;-47
2022/06/08 00:35:01;;;;;;;23.05;18.17;;;;;;;16.45;100.00;100947.31;5026032;28;20567;-48
2022/06/08 00:37:49;;;;;;;21.75;18.05;;;;;;;16.36;100.00;100943.63;5021541;28;20575;-47
2022/06/08 00:41:07;;;;;;;20.77;17.45;;;;;;;16.32;100.00;100940.66;5021168;28;20041;-49
2022/06/08 00:43:56;;;;;;;22.05;17.17;;;;;;;16.33;100.00;100938.72;5007492;28;20041;-49
2022/06/08 00:46:45;;;;;;;22.48;19.27;;;;;;;16.35;100.00;100936.50;5021863;28;20050;-47
2022/06/08 00:49:43;;;;;;;21.98;18.27;;;;;;;16.33;100.00;100935.97;5027680;28;20069;-49
2022/06/08 00:52:26;;;;;;;21.10;17.40;;;;;;;16.32;100.00;100931.59;5029664;28;20057;-49
2022/06/08 00:55:15;;;;;;;23.23;17.85;;;;;;;16.30;100.00;100929.16;5016149;28;20513;-49
2022/06/08 00:58:06;;;;;;;21.58;17.17;;;;;;;16.33;100.00;100927.72;5022878;28;20499;-49
2022/06/08 01:00:54;;;;;;;22.17;17.80;;;;;;;16.35;100.00;100925.50;5028557;28;20049;-47
2022/06/08 01:03:42;;;;;;;22.73;17.83;;;;;;;16.36;100.00;100932.63;5021130;28;20411;-49
2022/06/08 01:06:32;;;;;;;21.00;17.77;;;;;;;16.28;100.00;100923.13;5027760;28;20455;-47
2022/06/08 01:09:40;;;;;;;21.15;17.50;;;;;;;16.25;100.00;100922.94;5026293;28;20492;-49
2022/06/08 01:12:28;;;;;;;22.67;18.50;;;;;;;16.23;100.00;100914.97;5013058;28;20050;-48
2022/06/08 01:15:27;;;;;;;23.27;19.00;;;;;;;16.18;100.00;100924.13;5022673;28;20057;-52
2022/06/08 01:18:17;;;;;;;24.42;18.08;;;;;;;16.12;100.00;100913.56;5031875;28;20049;-47
2022/06/08 01:21:22;;;;;;;25.35;18.70;;;;;;;16.13;100.00;100909.69;5012275;28;20076;-48
2022/06/08 01:24:24;;;;;;;20.88;17.73;;;;;;;16.14;100.00;100895.66;5011815;28;20050;-52
2022/06/08 01:27:22;;;;;;;22.65;18.67;;;;;;;16.17;100.00;100895.03;5004496;28;20052;-50
2022/06/08 01:30:21;;;;;;;21.83;17.88;;;;;;;16.19;100.00;100890.06;5020020;28;20050;-50
2022/06/08 01:33:41;;;;;;;23.75;19.00;;;;;;;16.18;100.00;100887.59;5009848;28;20072;-49
2022/06/08 01:36:52;;;;;;;21.90;17.15;;;;;;;16.15;100.00;100875.28;5029444;28;20460;-48
2022/06/08 01:40:00;;;;;;;24.20;18.73;;;;;;;16.14;100.00;100865.41;5016918;28;20048;-48
2022/06/08 01:43:09;;;;;;;25.58;18.85;;;;;;;16.09;100.00;100871.00;5021783;28;20045;-49
2022/06/08 01:46:05;;;;;;;21.70;18.27;;;;;;;16.07;100.00;100866.94;5011914;28;20074;-52
2022/06/08 01:48:53;;;;;;;22.77;19.13;;;;;;;16.09;100.00;100867.41;5025424;28;20404;-45
2022/06/08 01:52:10;;;;;;;23.00;19.65;;;;;;;16.06;100.00;100857.84;5029844;28;20054;-48
2022/06/08 01:55:13;;;;;;;22.15;19.38;;;;;;;16.01;100.00;100846.97;5022900;28;20052;-50
2022/06/08 01:58:26;;;;;;;23.00;19.98;;;;;;;15.98;100.00;100848.38;5024837;28;20072;-49
2022/06/08 02:01:23;;;;;;;21.60;19.25;;;;;;;15.96;100.00;100838.81;5021165;28;20060;-48
2022/06/08 02:04:34;;;;;;;25.48;20.10;;;;;;;16.00;100.00;100834.34;5028020;28;20049;-48
2022/06/08 02:07:34;;;;;;;22.92;19.65;;;;;;;15.97;100.00;100838.53;5023361;28;20046;-47
2022/06/08 02:10:59;;;;;;;22.88;19.33;;;;;;;15.93;100.00;100825.69;5023452;28;20049;-47
2022/06/08 02:14:15;;;;;;;24.38;19.08;;;;;;;15.92;100.00;100824.03;5027625;28;20100;-53
2022/06/08 02:17:10;;;;;;;21.92;19.52;;;;;;;15.88;100.00;100826.59;5026670;28;20050;-46
2022/06/08 02:20:07;;;;;;;21.60;19.23;;;;;;;15.85;100.00;100823.63;5021271;28;20132;-51
2022/06/08 02:23:02;;;;;;;21.35;18.83;;;;;;;15.81;100.00;100809.69;4998683;28;20088;-50
2022/06/08 02:25:55;;;;;;;20.53;18.30;;;;;;;15.80;100.00;100810.78;5019869;28;20051;-49
2022/06/08 02:28:49;;;;;;;21.83;18.05;;;;;;;15.76;100.00;100805.09;5007565;28;20069;-49
2022/06/08 02:31:53;;;;;;;23.30;18.25;;;;;;;15.77;100.00;100793.00;5015678;28;20046;-49
2022/06/08 02:34:42;;;;;;;20.40;17.42;;;;;;;15.75;100.00;100797.16;5010208;28;20124;-48
2022/06/08 02:37:31;;;;;;;20.35;17.80;;;;;;;15.75;100.00;100787.00;5012754;28;20108;-47
2022/06/08 02:40:24;;;;;;;19.17;16.42;;;;;;;15.73;100.00;100782.94;5028525;28;20049;-48
2022/06/08 02:43:17;;;;;;;19.02;16.67;;;;;;;15.72;100.00;100787.59;5001737;28;20108;-52
2022/06/08 02:46:28;;;;;;;19.33;16.42;;;;;;;15.69;100.00;100788.19;5015469;28;20050;-52
2022/06/08 02:49:17;;;;;;;25.35;16.90;;;;;;;15.65;100.00;100781.66;5006232;28;20037;-53
2022/06/08 02:52:26;;;;;;;20.67;16.08;;;;;;;15.66;100.00;100777.00;5024269;28;20061;-53
2022/06/08 02:55:28;;;;;;;20.35;15.80;;;;;;;15.65;100.00;100769.88;5012964;28;20134;-51
2022/06/08 02:58:35;;;;;;;24.30;15.23;;;;;;;15.62;100.00;100775.97;5011972;28;20463;-54
2022/06/08 03:01:26;;;;;;;17.38;14.50;;;;;;;15.57;100.00;100782.38;4990661;28;20045;-54
2022/06/08 03:04:24;;;;;;;19.17;15.63;;;;;;;15.61;100.00;100780.66;5013529;28;20057;-54
2022/06/08 03:07:05;;;;;;;17.98;15.60;;;;;;;15.64;100.00;100774.53;4998470;28;20050;-53
2022/06/08 03:09:57;;;;;;;17.65;15.32;;;;;;;15.68;100.00;100770.09;5015041;28;20056;-49
2022/06/08 03:13:04;;;;;;;19.00;14.93;;;;;;;15.70;100.00;100765.09;5021847;28;20065;-50
2022/06/08 03:16:01;;;;;;;17.70;14.50;;;;;;;15.71;100.00;100766.75;5030620;28;20049;-48
2022/06/08 03:18:49;;;;;;;17.38;15.00;;;;;;;15.68;100.00;100761.84;5033621;28;20048;-49
2022/06/08 03:21:37;;;;;;;18.70;15.10;;;;;;;15.66;100.00;100760.53;5025297;28;20049;-50
2022/06/08 03:24:26;;;;;;;18.55;15.68;;;;;;;15.65;100.00;100751.44;5021840;28;20073;-49
2022/06/08 03:27:14;;;;;;;17.42;14.55;;;;;;;15.67;100.00;100749.22;5034242;28;20056;-50
2022/06/08 03:30:09;;;;;;;19.50;15.13;;;;;;;15.67;100.00;100742.91;5024053;28;20058;-51
2022/06/08 03:33:00;;;;;;;17.40;14.93;;;;;;;15.67;100.00;100754.69;5029125;28;20050;-48
2022/06/08 03:35:28;;;;;;;18.15;15.02;;;;;;;15.68;100.00;100755.50;5019652;28;20053;-46
2022/06/08 03:38:15;;;;;;;16.27;14.02;;;;;;;15.69;100.00;100754.41;5020913;28;20045;-46
2022/06/08 03:41:06;;;;;;;16.48;14.38;;;;;;;15.69;100.00;100760.72;5026118;28;20080;-46
2022/06/08 03:43:53;;;;;;;15.93;13.77;;;;;;;15.70;100.00;100765.09;5028657;28;20046;-46
2022/06/08 03:47:07;;;;;;;16.83;13.75;;;;;;;15.69;100.00;100755.22;5019921;28;20057;-49
2022/06/08 03:49:57;;;;;;;17.92;13.82;;;;;;;15.67;100.00;100757.44;5017116;28;20046;-49
2022/06/08 03:52:48;;;;;;;15.20;13.30;;;;;;;15.66;100.00;100760.53;5012086;28;20099;-49
2022/06/08 03:55:36;;;;;;;16.45;12.70;;;;;;;15.63;100.00;100759.16;5024546;28;20049;-53
2022/06/08 03:58:24;;;;;;;17.70;12.88;;;;;;;15.63;100.00;100756.41;5027282;28;20492;-49
2022/06/08 04:01:13;;;;;;;15.85;12.18;;;;;;;15.59;100.00;100769.16;5023402;28;20412;-47
2022/06/08 04:04:05;;;;;;;14.60;11.88;;;;;;;15.61;100.00;100768.84;5016403;28;20123;-47
2022/06/08 04:06:54;;;;;;;14.68;11.65;;;;;;;15.63;100.00;100767.41;5024332;28;20050;-50
2022/06/08 04:09:42;;;;;;;16.92;12.13;;;;;;;15.66;100.00;100772.31;5025095;28;20041;-49
2022/06/08 04:12:30;;;;;;;14.25;10.93;;;;;;;15.61;100.00;100763.34;5022549;28;20068;-48
2022/06/08 04:18:26;;;;;;;13.63;10.20;;;;;;;15.59;100.00;100765.59;5022822;28;20133;-46
2022/06/08 04:21:18;;;;;;;13.48;10.25;;;;;;;15.58;100.00;100766.69;5023255;28;20056;-48
2022/06/08 04:24:22;;;;;;;12.38;9.90;;;;;;;15.60;100.00;100762.53;5021735;28;20045;-48
2022/06/08 04:27:16;;;;;;;12.07;9.50;;;;;;;15.61;100.00;100753.19;5021478;28;20045;-48
2022/06/08 04:30:07;;;;;;;12.38;9.35;;;;;;;15.60;100.00;100748.78;5027515;28;20053;-46
2022/06/08 04:32:56;;;;;;;11.65;8.82;;;;;;;15.64;100.00;100749.81;5031184;28;20049;-48
2022/06/08 04:35:45;;;;;;;14.65;8.80;;;;;;;15.70;100.00;100745.88;5023761;28;20121;-48
2022/06/08 04:38:34;;;;;;;12.60;8.40;;;;;;;15.75;100.00;100743.06;5025902;28;20038;-51
2022/06/08 04:41:22;;;;;;;10.60;8.00;;;;;;;15.80;100.00;100752.28;5002509;28;20129;-52
2022/06/08 04:44:13;;;;;;;10.27;7.47;;;;;;;15.80;100.00;100749.56;5012390;28;20037;-47
2022/06/08 04:46:41;;;;;;;10.45;7.20;;;;;;;15.73;100.00;100756.28;5008722;28;20048;-52
2022/06/08 04:49:35;;;;;;;9.57;7.18;;;;;;;15.71;100.00;100753.03;5015689;28;20050;-50
2022/06/08 04:52:24;;;;;;;11.07;7.45;;;;;;;15.74;100.00;100741.41;5022441;28;20050;-50
2022/06/08 04:55:14;;;;;;;9.95;7.40;;;;;;;15.76;100.00;100736.44;5012722;28;20054;-48
2022/06/08 04:58:05;;;;;;;10.30;7.32;;;;;;;15.78;100.00;100727.91;5026204;28;20056;-50
2022/06/08 05:00:37;;;;;;;10.43;6.95;;;;;;;15.81;100.00;100718.22;5011653;28;20103;-48
2022/06/08 05:03:29;;;;;;;11.68;7.93;;;;;;;15.85;100.00;100724.72;5025507;28;20095;-53
2022/06/08 05:06:18;;;;;;;11.65;7.65;;;;;;;15.84;100.00;100712.13;5012612;28;20742;-53
2022/06/08 05:09:06;;;;;;;9.88;7.15;;;;;;;15.83;100.00;100711.31;5011370;28;20550;-50
2022/06/08 05:12:00;;;;;;;16.42;7.55;;;;;;;15.85;100.00;100713.72;5029313;28;20045;-48
2022/06/08 05:14:49;;;;;;;11.27;7.63;;;;;;;15.83;100.00;100721.50;5016745;28;20065;-54
2022/06/08 05:17:37;;;;;;;10.25;6.90;;;;;;;15.86;100.00;100715.38;5012905;28;20129;-52
2022/06/08 05:20:27;;;;;;;10.02;6.53;;;;;;;15.90;100.00;100705.41;5018919;28;20128;-52
2022/06/08 05:23:23;;;;;;;11.20;6.93;;;;;;;15.91;100.00;100707.03;5029585;28;20525;-51
2022/06/08 05:26:12;;;;;;;9.52;6.55;;;;;;;15.93;100.00;100696.53;5023384;28;20038;-50
2022/06/08 05:29:02;;;;;;;10.70;7.32;;;;;;;15.95;100.00;100694.31;5014951;28;20045;-52
2022/06/08 05:31:52;;;;;;;12.38;7.95;;;;;;;15.96;100.00;100687.69;5024585;28;20045;-51
2022/06/08 05:34:40;;;;;;;10.00;7.10;;;;;;;15.96;100.00;100695.91;5022857;28;20040;-53
2022/06/08 05:37:33;;;;;;;11.02;7.18;;;;;;;15.98;100.00;100685.44;5004825;28;20060;-49
2022/06/08 05:40:23;;;;;;;11.52;7.38;;;;;;;16.00;100.00;100683.19;5026285;28;20041;-52
2022/06/08 05:43:13;;;;;;;10.02;7.13;;;;;;;16.01;100.00;100676.56;5021907;28;20077;-48
2022/06/08 05:46:06;;;;;;;12.88;7.00;;;;;;;16.03;100.00;100679.03;5017415;28;20042;-47
2022/06/08 05:48:54;;;;;;;11.73;7.32;;;;;;;16.03;100.00;100670.78;4332780;28;10000442;-53
2022/06/08 05:51:42;;;;;;;12.43;7.07;;;;;;;16.03;100.00;100668.84;5031729;28;20053;-48
2022/06/08 05:54:33;;;;;;;10.13;7.00;;;;;;;16.06;100.00;100665.47;5031869;28;20057;-52
2022/06/08 05:57:21;;;;;;;10.25;6.78;;;;;;;16.07;100.00;100661.59;5029823;28;20103;-49
2022/06/08 06:00:14;;;;;;;11.18;6.32;;;;;;;16.11;100.00;100651.59;5021043;28;20057;-49
2022/06/08 06:03:02;;;;;;;10.48;7.05;;;;;;;16.10;100.00;100654.69;5031145;28;20540;-49
2022/06/08 06:05:57;;;;;;;10.23;6.15;;;;;;;16.09;100.00;100653.88;5022537;28;20432;-50
2022/06/08 06:08:45;;;;;;;11.45;6.32;;;;;;;16.09;100.00;100653.88;5027098;28;20141;-48
2022/06/08 06:11:38;;;;;;;13.75;6.65;;;;;;;16.12;100.00;100647.75;5030068;28;20049;-46
2022/06/08 06:14:26;;;;;;;12.07;6.65;;;;;;;16.15;100.00;100638.88;5031215;28;20049;-50
2022/06/08 06:17:16;;;;;;;10.15;7.45;;;;;;;16.19;100.00;100647.31;5027192;28;20057;-51
2022/06/08 06:20:04;;;;;;;8.75;6.35;;;;;;;16.22;100.00;100643.13;5026563;28;20056;-47
2022/06/08 06:23:12;;;;;;;12.82;6.40;;;;;;;16.25;100.00;100648.81;5029215;28;20054;-46
2022/06/08 06:26:11;;;;;;;8.90;6.25;;;;;;;16.31;100.00;100644.84;5023721;28;20065;-46
2022/06/08 06:29:28;;;;;;;12.05;6.53;;;;;;;16.30;100.00;100642.38;5015917;28;20513;-47
2022/06/08 06:32:38;;;;;;;12.40;7.03;;;;;;;16.27;100.00;100638.31;5030570;28;20131;-46
2022/06/08 06:35:29;;;;;;;12.07;6.28;;;;;;;16.24;100.00;100629.91;5035520;28;20046;-47
2022/06/08 06:38:25;;;;;;;9.68;6.95;;;;;;;16.21;100.00;100628.59;5027936;28;20045;-46
2022/06/08 06:41:18;;;;;;;13.43;6.65;;;;;;;16.22;100.00;100634.91;5008713;28;20407;-46
2022/06/08 06:44:08;;;;;;;9.82;6.28;;;;;;;16.23;100.00;100636.50;5002310;28;20045;-47
2022/06/08 06:47:12;;;;;;;9.50;5.85;;;;;;;16.26;100.00;100644.97;5029122;28;20129;-48
2022/06/08 06:50:13;;;;;;;9.48;6.40;;;;;;;16.28;100.00;100645.44;5019659;28;20050;-53
2022/06/08 06:53:01;;;;;;;10.32;6.10;;;;;;;16.27;100.00;100648.50;5015891;28;20049;-49
2022/06/08 06:55:59;;;;;;;9.30;6.07;;;;;;;16.28;100.00;100650.13;5018579;28;20534;-48
2022/06/08 06:58:55;;;;;;;11.88;6.35;;;;;;;16.32;100.00;100643.69;5020992;28;20046;-49
2022/06/08 07:01:46;;;;;;;9.60;5.88;;;;;;;16.39;100.00;100651.53;5033353;28;20496;-48
2022/06/08 07:04:34;;;;;;;10.27;5.53;;;;;;;16.39;100.00;100640.53;5028297;28;20042;-50
2022/06/08 07:07:22;;;;;;;11.55;5.53;;;;;;;16.45;100.00;100635.72;5018022;28;20514;-53
2022/06/08 07:10:10;;;;;;;11.15;4.45;;;;;;;16.52;100.00;100634.13;5031793;28;20042;-51
2022/06/08 07:12:58;;;;;;;8.13;4.00;;;;;;;16.60;100.00;100635.34;5025794;28;20137;-49
2022/06/08 07:15:46;;;;;;;7.60;4.03;;;;;;;16.64;100.00;100627.28;5027672;28;20137;-48
2022/06/08 07:18:36;;;;;;;6.88;3.58;;;;;;;16.75;100.00;100626.69;5030995;28;20463;-50
2022/06/08 07:21:05;;;;;;;8.80;4.57;;;;;;;16.75;100.00;100609.38;4997494;28;20452;-54
2022/06/08 07:23:55;;;;;;;8.40;4.30;;;;;;;16.78;100.00;100608.75;5020080;28;20048;-52
2022/06/08 07:26:43;;;;;;;9.35;3.92;;;;;;;16.77;100.00;100612.63;5034372;28;20049;-48
2022/06/08 07:29:31;;;;;;;6.30;3.72;;;;;;;16.81;100.00;100610.88;5032807;28;20050;-49
2022/06/08 07:32:19;;;;;;;9.65;4.10;;;;;;;16.82;100.00;100604.28;5034060;28;20061;-51
2022/06/08 07:35:08;;;;;;;12.75;5.10;;;;;;;16.87;100.00;100600.59;5026782;28;20054;-47
2022/06/08 07:37:56;;;;;;;25.48;8.52;;;;;;;16.93;100.00;100597.38;5024628;28;20489;-49
2022/06/08 07:40:43;;;;;;;11.48;5.05;;;;;;;16.97;100.00;100594.78;5019232;28;20046;-52
2022/06/08 07:43:31;;;;;;;10.05;4.38;;;;;;;17.01;100.00;100598.56;5014449;28;20055;-52
2022/06/08 07:46:19;;;;;;;11.07;4.78;;;;;;;17.06;100.00;100598.41;5018734;28;20045;-50
2022/06/08 07:52:17;;;;;;;21.80;6.63;;;;;;;17.37;93.77;100598.34;5025309;28;20583;-50
2022/06/08 07:55:05;;;;;;;19.42;6.03;;;;;;;17.54;93.24;100596.78;5026868;28;20050;-49
2022/06/08 07:57:53;;;;;;;19.55;6.13;;;;;;;17.48;93.23;100598.88;5019535;28;20046;-51
2022/06/08 08:00:43;;;;;;;20.10;5.40;;;;;;;17.53;92.18;100597.91;5016115;28;20596;-50
2022/06/08 08:03:31;;;;;;;41.65;12.50;;;;;;;17.57;92.88;100602.47;5020172;28;20045;-51
2022/06/08 08:06:19;;;;;;;36.90;12.68;;;;;;;17.66;93.33;100608.81;5033902;28;20060;-48
2022/06/08 08:08:48;;;;;;;31.80;11.75;;;;;;;17.56;94.91;100605.56;5032395;28;20050;-50
2022/06/08 08:11:36;;;;;;;57.05;18.42;;;;;;;17.61;93.24;100608.16;5033205;28;20048;-48
2022/06/08 08:14:12;;;;;;;41.58;14.02;;;;;;;17.73;92.84;100605.59;5021279;28;20054;-51
2022/06/08 08:17:02;;;;;;;57.80;17.60;;;;;;;17.88;92.79;100612.59;5030223;28;20049;-50
2022/06/08 08:19:49;;;;;;;23.42;8.25;;;;;;;17.77;93.40;100608.50;5019324;28;20511;-51
2022/06/08 08:22:37;;;;;;;28.13;8.35;;;;;;;17.70;92.87;100606.19;5033801;28;20037;-49
2022/06/08 08:25:10;;;;;;;16.52;5.32;;;;;;;17.66;95.57;100599.72;5029351;28;20050;-50
2022/06/08 08:27:58;;;;;;;32.92;10.23;;;;;;;17.66;91.90;100599.72;5021695;28;20042;-50
2022/06/08 08:30:46;;;;;;;24.67;8.20;;;;;;;17.74;93.33;100601.69;5032267;28;20045;-52
2022/06/08 08:33:34;;;;;;;30.95;9.85;;;;;;;17.84;91.20;100601.41;5024956;28;20084;-46
2022/06/08 08:36:22;;;;;;;31.55;11.13;;;;;;;17.90;90.47;100604.81;5028568;28;20416;-49
2022/06/08 08:39:10;;;;;;;11.75;4.68;;;;;;;17.83;92.36;100594.28;5032827;28;20053;-50
2022/06/08 08:45:12;;;;;;;16.85;5.88;;;;;;;17.73;94.15;100596.50;5032968;28;20124;-53
2022/06/08 08:48:06;;;;;;;14.98;4.90;;;;;;;17.74;93.49;100596.16;5011996;28;20049;-54
2022/06/08 08:51:29;;;;;;;10.35;4.25;;;;;;;17.70;92.12;100595.19;5013450;28;20050;-53
2022/06/08 08:54:50;;;;;;;23.38;7.88;;;;;;;17.67;91.35;100593.88;5004681;28;20539;-52
2022/06/08 08:58:07;;;;;;;9.20;3.90;;;;;;;17.68;94.60;100591.97;5020322;28;20053;-48
2022/06/08 09:01:00;;;;;;;18.90;6.88;;;;;;;17.69;91.95;100590.81;5025555;28;20045;-51
2022/06/08 09:03:59;;;;;;;26.92;8.07;;;;;;;17.81;90.83;100593.78;5032516;28;20046;-49
2022/06/08 09:06:47;;;;;;;19.02;5.82;;;;;;;17.90;90.11;100593.81;5017044;28;20046;-51
2022/06/08 09:09:35;;;;;;;18.25;4.78;;;;;;;17.95;90.49;100599.16;5026430;28;20042;-50
2022/06/08 09:12:24;;;;;;;12.75;3.55;;;;;;;17.99;89.91;100596.53;5012135;28;20455;-50
2022/06/08 09:15:15;;;;;;;11.20;4.75;;;;;;;17.97;89.69;100598.84;5031019;28;20412;-46
2022/06/08 09:18:05;;;;;;;12.57;4.07;;;;;;;17.86;90.76;100598.31;5019003;28;20141;-50
2022/06/08 09:20:53;;;;;;;18.65;6.00;;;;;;;17.99;88.37;100602.06;5022532;28;20057;-50
2022/06/08 09:23:43;;;;;;;16.67;5.20;;;;;;;18.01;88.78;100594.28;5025193;28;20124;-47
2022/06/08 09:26:34;;;;;;;11.73;4.35;;;;;;;17.93;90.66;100603.38;5028921;28;20508;-49
2022/06/08 09:29:26;;;;;;;8.40;3.47;;;;;;;17.86;91.60;100598.31;5020981;28;20050;-51
2022/06/08 09:32:49;;;;;;;14.10;5.68;;;;;;;18.00;88.82;100592.66;5019342;28;20037;-53
2022/06/08 09:35:40;;;;;;;14.02;5.53;;;;;;;18.18;87.38;100591.50;5033223;28;20050;-47
2022/06/08 09:38:34;;;;;;;14.10;4.32;;;;;;;18.15;88.06;100585.84;5012771;28;20509;-46
2022/06/08 09:41:39;;;;;;;16.30;4.85;;;;;;;18.09;87.67;100596.25;5007998;28;20038;-46
2022/06/08 09:44:29;;;;;;;13.65;4.57;;;;;;;17.99;88.09;100593.78;5017467;28;20056;-45
2022/06/08 09:51:28;;;;;;;;;;;;;;;17.81;89.01;100592.97;5027192;28;20543;-48
2022/06/08 09:54:31;;;;;;;10.48;3.70;;;;;;;17.69;89.74;100593.56;5018881;28;19921;-48
2022/06/08 09:57:21;;;;;;;10.27;3.50;;;;;;;17.73;89.07;100599.25;5028329;28;20043;-48
2022/06/08 10:00:29;;;;;;;12.23;3.50;;;;;;;17.78;88.98;100593.59;5023993;28;20049;-48
2022/06/08 10:03:44;;;;;;;12.82;3.30;;;;;;;17.90;88.09;100595.75;5024312;28;20053;-47
2022/06/08 10:06:51;;;;;;;10.18;3.53;;;;;;;17.87;88.14;100598.00;5031862;28;20044;-49
2022/06/08 10:09:54;;;;;;;8.90;2.88;;;;;;;17.80;88.90;100614.22;5037432;28;20045;-48
2022/06/08 10:12:58;;;;;;;7.85;3.13;;;;;;;17.76;89.45;100602.19;5027695;28;20412;-49
2022/06/08 10:15:58;;;;;;;8.68;2.92;;;;;;;17.86;90.49;100609.34;5027333;28;20077;-47
2022/06/08 10:18:54;;;;;;;10.88;3.28;;;;;;;17.74;91.22;100606.38;5037175;28;20068;-48
2022/06/08 10:21:44;;;;;;;10.43;2.90;;;;;;;17.61;93.29;100602.66;5018069;28;20049;-49
2022/06/08 10:24:50;;;;;;;11.98;3.80;;;;;;;17.64;92.55;100608.31;5028381;28;20443;-50
2022/06/08 10:27:48;;;;;;;9.57;3.38;;;;;;;17.68;93.59;100608.50;5021676;28;20056;-49
2022/06/08 10:30:54;;;;;;;10.10;3.17;;;;;;;17.71;92.78;100602.34;5036884;28;20050;-49
2022/06/08 10:33:48;;;;;;;8.18;2.95;;;;;;;17.58;93.99;100608.78;5023163;28;20046;-52
2022/06/08 10:36:37;;;;;;;8.95;3.38;;;;;;;17.58;93.94;100611.53;5014952;28;20053;-48
2022/06/08 10:39:27;;;;;;;12.88;3.38;;;;;;;17.75;92.02;100608.84;5022023;28;20052;-49
2022/06/08 10:42:40;;;;;;;10.55;3.28;;;;;;;17.72;92.56;100603.94;4323794;28;10000774;-51
2022/06/08 10:45:24;;;;;;;9.02;3.05;;;;;;;17.70;92.67;100608.97;5011074;28;20038;-52
2022/06/08 10:48:15;;;;;;;7.60;2.90;;;;;;;17.70;91.83;100616.41;5021239;28;20038;-51
2022/06/08 10:51:12;;;;;;;8.93;3.00;;;;;;;17.64;92.49;100607.50;5018727;28;20053;-51
2022/06/08 10:57:35;;;;;;;6.25;2.70;;;;;;;17.52;92.72;100612.81;5030704;28;20041;-50
2022/06/08 11:00:28;;;;;;;8.50;3.40;;;;;;;17.51;93.74;100611.19;5020712;28;20049;-49
2022/06/08 11:03:36;;;;;;;10.90;3.45;;;;;;;17.56;93.88;100605.56;5021055;28;20092;-50
2022/06/08 11:06:46;;;;;;;9.73;3.22;;;;;;;17.53;93.84;100614.44;5026984;28;20053;-52
2022/06/08 11:09:33;;;;;;;7.32;2.70;;;;;;;17.61;93.43;100611.72;5025702;28;20079;-52
2022/06/08 11:12:46;;;;;;;6.82;2.40;;;;;;;17.63;93.78;100611.38;5028667;28;20057;-49
2022/06/08 11:15:39;;;;;;;7.63;3.10;;;;;;;17.56;94.17;100603.59;5017067;28;20519;-51
2022/06/08 11:18:35;;;;;;;7.95;2.90;;;;;;;17.46;94.41;100601.97;5025068;28;20056;-50
2022/06/08 11:21:45;;;;;;;7.07;3.00;;;;;;;17.40;95.59;100597.72;5031537;28;20056;-46
2022/06/08 11:24:42;;;;;;;9.63;3.03;;;;;;;17.37;96.64;100589.28;5016139;28;20057;-50
2022/06/08 11:27:33;;;;;;;8.70;2.95;;;;;;;17.36;96.35;100584.91;5013749;28;20050;-49
2022/06/08 11:30:23;;;;;;;9.18;2.92;;;;;;;17.45;95.56;100583.78;5010659;28;20415;-48
2022/06/08 11:33:15;;;;;;;6.90;2.40;;;;;;;17.44;93.92;100576.66;5023459;28;20052;-49
2022/06/08 11:36:20;;;;;;;9.52;2.85;;;;;;;17.51;94.84;100558.84;5029804;28;20052;-49
2022/06/08 11:39:30;;;;;;;7.15;2.80;;;;;;;17.59;93.65;100563.56;5026446;28;20053;-48
2022/06/08 11:42:31;;;;;;;7.75;2.75;;;;;;;17.68;93.49;100554.19;5029438;28;20045;-49
2022/06/08 11:45:23;;;;;;;6.75;2.60;;;;;;;17.70;92.71;100561.31;5030268;28;20052;-48
2022/06/08 11:48:13;;;;;;;7.55;2.60;;;;;;;17.62;93.24;100560.97;5018981;28;20092;-51
2022/06/08 11:51:03;;;;;;;9.32;3.10;;;;;;;17.60;94.31;100554.16;5016055;28;20038;-50
2022/06/08 11:53:51;;;;;;;7.60;2.90;;;;;;;17.65;93.69;100554.00;5007951;28;20046;-48
2022/06/08 11:56:56;;;;;;;10.88;3.22;;;;;;;17.64;93.18;100549.66;5026923;28;20107;-49
2022/06/08 11:59:45;;;;;;;7.65;2.53;;;;;;;17.66;94.26;100539.13;5022881;28;20064;-48
2022/06/08 12:02:37;;;;;;;10.73;3.08;;;;;;;17.67;94.55;100544.28;5010225;28;20087;-50
2022/06/08 12:05:28;;;;;;;8.30;2.80;;;;;;;17.67;93.99;100540.72;5018124;28;20050;-53
2022/06/08 12:08:27;;;;;;;9.00;2.85;;;;;;;17.62;95.19;100538.13;5028996;28;20041;-49
2022/06/08 12:11:39;;;;;;;7.85;2.78;;;;;;;17.71;95.01;100541.72;5029033;28;20049;-50
2022/06/08 12:14:36;;;;;;;10.15;2.72;;;;;;;17.58;95.91;100537.13;5023159;28;20057;-51
2022/06/08 12:17:32;;;;;;;7.28;2.38;;;;;;;17.56;94.68;100533.94;5019320;28;20416;-50
2022/06/08 12:20:40;;;;;;;8.85;2.63;;;;;;;17.61;94.48;100536.53;5017885;28;20045;-51
2022/06/08 12:23:46;;;;;;;7.90;2.47;;;;;;;17.53;94.74;100535.34;5026503;28;20053;-52
2022/06/08 12:26:42;;;;;;;8.25;2.80;;;;;;;17.54;94.21;100530.69;5027565;28;20067;-50
2022/06/08 12:29:39;;;;;;;7.10;2.53;;;;;;;17.61;94.23;100531.00;5021278;28;20128;-51
2022/06/08 12:32:36;;;;;;;8.45;2.38;;;;;;;17.53;95.95;100523.53;5028495;28;20041;-51
2022/06/08 12:35:27;;;;;;;8.65;2.88;;;;;;;17.53;95.40;100526.28;5008477;28;20058;-52
2022/06/08 12:38:21;;;;;;;6.65;2.42;;;;;;;17.49;94.92;100536.34;5019617;28;20504;-48
2022/06/08 12:41:17;;;;;;;7.78;2.53;;;;;;;17.50;94.71;100521.44;5012202;28;20056;-49
2022/06/08 12:43:53;;;;;;;8.23;2.42;;;;;;;17.57;94.94;100524.50;5003473;28;20081;-52
2022/06/08 12:46:49;;;;;;;6.22;2.65;;;;;;;17.58;95.33;100531.63;5026773;28;20042;-49
2022/06/08 12:49:48;;;;;;;5.22;2.30;;;;;;;17.52;94.71;100517.22;5026196;28;20045;-52
2022/06/08 12:52:36;;;;;;;6.95;2.42;;;;;;;17.45;96.60;100517.69;5023123;28;20042;-51
2022/06/08 12:55:26;;;;;;;5.47;2.25;;;;;;;17.32;98.28;100510.38;5025736;28;20058;-52
2022/06/08 12:58:13;;;;;;;6.85;2.22;;;;;;;17.31;96.73;100505.19;5030795;28;20556;-50
2022/06/08 13:01:04;;;;;;;6.32;2.50;;;;;;;17.36;96.68;100505.84;5033438;28;20042;-53
2022/06/08 13:03:52;;;;;;;8.73;2.40;;;;;;;17.28;98.66;100508.59;5029179;28;20441;-51
2022/06/08 13:06:40;;;;;;;7.88;2.70;;;;;;;17.16;100.00;100501.75;5029936;28;20508;-51
2022/06/08 13:09:28;;;;;;;7.20;2.60;;;;;;;17.16;99.62;100501.75;5032917;28;20054;-51
2022/06/08 13:12:28;;;;;;;6.88;2.70;;;;;;;17.20;99.00;100494.50;5032692;28;20049;-51
2022/06/08 13:15:19;;;;;;;7.65;2.70;;;;;;;17.16;100.00;100493.50;5010475;28;20062;-50
2022/06/08 13:18:10;;;;;;;6.22;2.50;;;;;;;17.13;100.00;100493.34;5027301;28;20041;-52
2022/06/08 13:20:58;;;;;;;9.95;2.95;;;;;;;17.14;100.00;100494.94;5032857;28;20048;-55
2022/06/08 13:23:46;;;;;;;17.15;3.58;;;;;;;17.11;100.00;100490.09;5022852;28;20045;-56
2022/06/08 13:26:36;;;;;;;8.25;2.88;;;;;;;17.09;100.00;100490.41;5013807;28;20511;-54
2022/06/08 13:29:23;;;;;;;8.30;3.00;;;;;;;17.08;100.00;100485.22;5023162;28;20046;-51